createdAt,value
2019-03-08T00:00:52.264Z,61.07
2019-03-08T00:01:52.277Z,61.07
2019-03-08T00:02:52.241Z,61.27
2019-03-08T00:03:52.255Z,61.07
2019-03-08T00:04:52.217Z,61.99
2019-03-08T00:05:52.213Z,61.17
2019-03-08T00:06:52.195Z,61.17
2019-03-08T00:07:52.189Z,61.07
2019-03-08T00:08:52.248Z,61.07
2019-03-08T00:09:52.185Z,61.17
2019-03-08T00:10:52.160Z,61.07
2019-03-08T00:11:52.140Z,61.58
2019-03-08T00:12:52.141Z,61.58
2019-03-08T00:13:52.111Z,61.17
2019-03-08T00:14:52.128Z,61.17
2019-03-08T00:15:52.089Z,60.86
2019-03-08T00:16:52.135Z,61.07
2019-03-08T00:17:52.063Z,61.07
2019-03-08T00:18:52.099Z,61.27
2019-03-08T00:19:52.051Z,61.88
2019-03-08T00:20:52.049Z,61.37
2019-03-08T00:21:52.023Z,61.17
2019-03-08T00:22:52.035Z,61.47
2019-03-08T00:23:51.997Z,61.99
2019-03-08T00:24:51.990Z,61.47
2019-03-08T00:25:51.990Z,61.37
2019-03-08T00:26:51.963Z,61.88
2019-03-08T00:27:52.019Z,61.27
2019-03-08T00:28:51.938Z,61.37
2019-03-08T00:29:51.932Z,61.17
2019-03-08T00:30:51.917Z,60.86
2019-03-08T00:31:51.908Z,60.86
2019-03-08T00:32:51.897Z,60.86
2019-03-08T00:33:51.909Z,60.65
2019-03-08T00:34:51.884Z,60.83
2019-03-08T00:35:51.898Z,60.86
2019-03-08T00:36:51.850Z,60.96
2019-03-08T00:37:51.869Z,60.42
2019-03-08T00:38:51.832Z,60.96
2019-03-08T00:39:51.814Z,60.86
2019-03-08T00:40:51.807Z,60.86
2019-03-08T00:41:51.821Z,61.04
2019-03-08T00:42:51.817Z,60.65
2019-03-08T00:43:51.768Z,60.65
2019-03-08T00:44:51.758Z,60.86
2019-03-08T00:45:51.749Z,60.96
2019-03-08T00:46:51.764Z,60.86
2019-03-08T00:47:51.722Z,60.96
2019-03-08T00:48:51.731Z,60.75
2019-03-08T00:49:51.697Z,60.86
2019-03-08T00:50:51.706Z,61.07
2019-03-08T00:51:51.674Z,61.17
2019-03-08T00:52:51.668Z,60.96
2019-03-08T00:53:51.681Z,61.27
2019-03-08T00:54:51.697Z,61.07
2019-03-08T00:55:51.633Z,61.47
2019-03-08T00:56:51.629Z,61.88
2019-03-08T00:57:51.610Z,62.09
2019-03-08T00:58:51.624Z,61.58
2019-03-08T00:59:51.582Z,61.68
2019-03-08T01:00:51.576Z,61.68
2019-03-08T01:01:51.563Z,61.68
2019-03-08T01:02:51.583Z,61.79
2019-03-08T01:03:51.541Z,62.60
2019-03-08T01:04:51.579Z,61.79
2019-03-08T01:05:51.522Z,62.51
2019-03-08T01:06:51.512Z,62.30
2019-03-08T01:07:51.500Z,62.51
2019-03-08T01:08:51.488Z,62.60
2019-03-08T01:09:51.475Z,62.51
2019-03-08T01:10:51.477Z,62.40
2019-03-08T01:11:51.446Z,63.02
2019-03-08T01:12:51.430Z,63.02
2019-03-08T01:13:51.419Z,63.12
2019-03-08T01:14:51.413Z,63.12
2019-03-08T01:15:51.436Z,63.12
2019-03-08T01:16:51.389Z,63.32
2019-03-08T01:17:51.407Z,63.32
2019-03-08T01:18:51.376Z,63.46
2019-03-08T01:19:51.375Z,63.53
2019-03-08T01:20:51.341Z,63.32
2019-03-08T01:21:51.354Z,63.56
2019-03-08T01:22:51.316Z,63.35
2019-03-08T01:23:51.305Z,63.53
2019-03-08T01:24:51.297Z,63.46
2019-03-08T01:25:51.279Z,63.67
2019-03-08T01:26:51.338Z,63.53
2019-03-08T01:27:51.302Z,63.32
2019-03-08T01:28:51.262Z,63.12
2019-03-08T01:29:51.231Z,63.64
2019-03-08T01:30:51.237Z,63.53
2019-03-08T01:31:51.221Z,63.53
2019-03-08T01:32:51.229Z,63.56
2019-03-08T01:33:51.190Z,63.35
2019-03-08T01:34:51.175Z,63.22
2019-03-08T01:35:51.172Z,63.15
2019-03-08T01:36:51.158Z,63.43
2019-03-08T01:37:51.199Z,63.67
2019-03-08T01:38:51.141Z,63.35
2019-03-08T01:39:51.123Z,63.25
2019-03-08T01:40:51.125Z,63.76
2019-03-08T01:41:51.095Z,63.97
2019-03-08T01:42:51.087Z,63.35
2019-03-08T01:43:51.101Z,63.15
2019-03-08T01:44:51.112Z,64.07
2019-03-08T01:45:51.049Z,63.97
2019-03-08T01:46:51.045Z,63.35
2019-03-08T01:47:51.039Z,63.46
2019-03-08T01:48:51.069Z,63.87
2019-03-08T01:49:51.020Z,63.56
2019-03-08T01:50:51.001Z,63.94
2019-03-08T01:51:50.984Z,63.76
2019-03-08T01:52:50.970Z,63.76
2019-03-08T01:53:50.966Z,63.76
2019-03-08T01:54:50.980Z,63.97
2019-03-08T01:55:50.936Z,63.97
2019-03-08T01:56:50.931Z,63.56
2019-03-08T01:57:50.916Z,63.67
2019-03-08T01:58:50.929Z,63.76
2019-03-08T01:59:50.921Z,63.76
2019-03-08T02:00:50.889Z,63.87
2019-03-08T02:01:50.935Z,63.76
2019-03-08T02:02:50.869Z,64.39
2019-03-08T02:03:50.851Z,64.39
2019-03-08T02:04:50.849Z,64.07
2019-03-08T02:05:50.834Z,64.00
2019-03-08T02:06:50.826Z,64.07
2019-03-08T02:07:50.846Z,63.97
2019-03-08T02:08:50.805Z,63.97
2019-03-08T02:09:50.794Z,63.97
2019-03-08T02:10:50.782Z,63.25
2019-03-08T02:11:50.788Z,63.87
2019-03-08T02:12:50.763Z,63.46
2019-03-08T02:13:50.775Z,63.67
2019-03-08T02:14:51.390Z,63.49
2019-03-08T02:15:50.730Z,63.76
2019-03-08T02:16:50.722Z,63.35
2019-03-08T02:17:50.705Z,63.56
2019-03-08T02:18:50.926Z,63.97
2019-03-08T02:19:50.686Z,63.25
2019-03-08T02:20:52.242Z,63.25
2019-03-08T02:21:50.674Z,63.49
2019-03-08T02:22:50.667Z,63.67
2019-03-08T02:23:50.682Z,63.67
2019-03-08T02:24:50.653Z,63.56
2019-03-08T02:25:50.624Z,63.56
2019-03-08T02:26:50.607Z,63.46
2019-03-08T02:27:50.616Z,63.56
2019-03-08T02:28:50.605Z,63.67
2019-03-08T02:29:50.575Z,63.67
2019-03-08T02:30:50.599Z,63.46
2019-03-08T02:31:50.559Z,63.25
2019-03-08T02:32:50.536Z,63.67
2019-03-08T02:33:50.578Z,63.67
2019-03-08T02:34:50.517Z,63.56
2019-03-08T02:35:50.524Z,63.15
2019-03-08T02:36:50.495Z,63.15
2019-03-08T02:37:50.478Z,63.05
2019-03-08T02:38:50.492Z,62.95
2019-03-08T02:39:50.489Z,63.15
2019-03-08T02:40:50.452Z,63.15
2019-03-08T02:41:50.454Z,62.84
2019-03-08T02:42:50.427Z,63.25
2019-03-08T02:43:50.417Z,63.25
2019-03-08T02:44:50.427Z,63.15
2019-03-08T02:45:50.400Z,63.15
2019-03-08T02:46:50.378Z,63.56
2019-03-08T02:47:50.371Z,63.15
2019-03-08T02:48:50.358Z,63.15
2019-03-08T02:49:50.382Z,63.05
2019-03-08T02:50:50.338Z,63.05
2019-03-08T02:51:50.328Z,62.74
2019-03-08T02:52:50.316Z,62.95
2019-03-08T02:53:50.330Z,62.74
2019-03-08T02:54:50.337Z,63.22
2019-03-08T02:55:50.288Z,63.05
2019-03-08T02:56:50.279Z,63.05
2019-03-08T02:57:50.256Z,62.53
2019-03-08T02:58:50.302Z,62.40
2019-03-08T02:59:50.269Z,62.02
2019-03-08T03:00:50.228Z,62.63
2019-03-08T03:01:50.214Z,62.33
2019-03-08T03:02:50.205Z,62.09
2019-03-08T03:03:50.192Z,61.91
2019-03-08T03:04:50.225Z,62.33
2019-03-08T03:05:50.169Z,62.30
2019-03-08T03:06:50.160Z,62.43
2019-03-08T03:07:50.144Z,62.60
2019-03-08T03:08:50.134Z,62.09
2019-03-08T03:09:50.125Z,61.79
2019-03-08T03:10:50.137Z,61.88
2019-03-08T03:11:50.114Z,61.71
2019-03-08T03:12:50.093Z,61.81
2019-03-08T03:13:50.097Z,61.61
2019-03-08T03:14:50.079Z,61.68
2019-03-08T03:15:50.107Z,61.51
2019-03-08T03:16:50.047Z,61.71
2019-03-08T03:17:50.057Z,61.71
2019-03-08T03:18:50.027Z,62.23
2019-03-08T03:19:50.014Z,61.81
2019-03-08T03:20:50.096Z,61.91
2019-03-08T03:21:50.004Z,61.40
2019-03-08T03:22:50.015Z,61.61
2019-03-08T03:23:49.964Z,61.30
2019-03-08T03:24:49.958Z,61.51
2019-03-08T03:25:49.976Z,61.19
2019-03-08T03:26:49.946Z,61.19
2019-03-08T03:27:49.926Z,61.27
2019-03-08T03:28:49.938Z,61.17
2019-03-08T03:29:49.904Z,60.96
2019-03-08T03:30:49.918Z,60.65
2019-03-08T03:31:49.877Z,60.89
2019-03-08T03:32:49.865Z,61.19
2019-03-08T03:33:49.876Z,61.27
2019-03-08T03:34:49.845Z,61.27
2019-03-08T03:35:49.838Z,60.96
2019-03-08T03:36:49.849Z,61.07
2019-03-08T03:37:49.810Z,61.07
2019-03-08T03:38:49.810Z,60.96
2019-03-08T03:39:49.835Z,61.17
2019-03-08T03:40:49.771Z,61.17
2019-03-08T03:41:49.789Z,61.17
2019-03-08T03:42:49.751Z,60.96
2019-03-08T03:43:49.741Z,61.17
2019-03-08T03:44:49.726Z,61.17
2019-03-08T03:45:49.717Z,61.07
2019-03-08T03:46:49.726Z,61.68
2019-03-08T03:47:49.696Z,60.65
2019-03-08T03:48:49.689Z,60.75
2019-03-08T03:49:49.682Z,60.86
2019-03-08T03:50:49.697Z,60.55
2019-03-08T03:51:49.648Z,60.55
2019-03-08T03:52:49.675Z,60.35
2019-03-08T03:53:49.621Z,60.45
2019-03-08T03:54:49.612Z,60.45
2019-03-08T03:55:49.595Z,60.35
2019-03-08T03:56:49.587Z,60.24
2019-03-08T03:57:49.575Z,59.83
2019-03-08T03:58:49.596Z,59.73
2019-03-08T03:59:49.551Z,60.03
2019-03-08T04:00:49.538Z,59.83
2019-03-08T04:01:49.523Z,59.93
2019-03-08T04:02:49.522Z,59.93
2019-03-08T04:03:49.527Z,59.52
2019-03-08T04:04:49.505Z,59.31
2019-03-08T04:05:49.482Z,59.22
2019-03-08T04:06:49.540Z,59.31
2019-03-08T04:07:49.457Z,59.42
2019-03-08T04:08:49.458Z,59.22
2019-03-08T04:09:49.442Z,59.52
2019-03-08T04:10:49.455Z,59.11
2019-03-08T04:11:49.421Z,59.42
2019-03-08T04:12:49.439Z,59.22
2019-03-08T04:13:49.406Z,59.42
2019-03-08T04:14:49.399Z,58.91
2019-03-08T04:15:49.361Z,59.01
2019-03-08T04:16:49.355Z,59.08
2019-03-08T04:17:49.355Z,58.87
2019-03-08T04:18:49.359Z,59.01
2019-03-08T04:19:49.318Z,59.22
2019-03-08T04:20:49.307Z,59.22
2019-03-08T04:21:49.310Z,59.31
2019-03-08T04:22:49.294Z,59.31
2019-03-08T04:23:49.310Z,59.11
2019-03-08T04:24:49.256Z,59.19
2019-03-08T04:25:49.249Z,59.08
2019-03-08T04:26:49.233Z,58.67
2019-03-08T04:27:49.227Z,58.91
2019-03-08T04:28:49.236Z,58.87
2019-03-08T04:29:49.247Z,59.19
2019-03-08T04:30:49.197Z,59.08
2019-03-08T04:31:49.177Z,58.39
2019-03-08T04:32:49.167Z,57.64
2019-03-08T04:33:49.165Z,57.57
2019-03-08T04:34:49.173Z,57.75
2019-03-08T04:35:49.169Z,58.26
2019-03-08T04:36:49.121Z,57.67
2019-03-08T04:37:49.176Z,57.85
2019-03-08T04:38:49.098Z,58.06
2019-03-08T04:39:49.090Z,57.44
2019-03-08T04:40:49.078Z,57.44
2019-03-08T04:41:49.065Z,57.51
2019-03-08T04:42:49.069Z,57.54
2019-03-08T04:43:49.065Z,56.90
2019-03-08T04:44:49.050Z,56.59
2019-03-08T04:45:49.052Z,56.79
2019-03-08T04:46:49.003Z,56.18
2019-03-08T04:47:48.994Z,56.90
2019-03-08T04:48:48.982Z,57.31
2019-03-08T04:49:48.967Z,56.28
2019-03-08T04:50:49.017Z,55.98
2019-03-08T04:51:49.005Z,56.18
2019-03-08T04:52:48.939Z,56.59
2019-03-08T04:53:48.933Z,56.08
2019-03-08T04:54:48.916Z,55.87
2019-03-08T04:55:48.905Z,55.98
2019-03-08T04:56:48.966Z,55.98
2019-03-08T04:57:48.907Z,56.38
2019-03-08T04:58:48.872Z,56.18
2019-03-08T04:59:49.151Z,56.38
2019-03-08T05:00:48.845Z,57.00
2019-03-08T05:01:48.850Z,56.38
2019-03-08T05:02:48.863Z,56.18
2019-03-08T05:03:48.814Z,56.90
2019-03-08T05:04:48.807Z,56.18
2019-03-08T05:05:48.822Z,56.18
2019-03-08T05:06:48.779Z,55.98
2019-03-08T05:07:48.769Z,56.05
2019-03-08T05:08:48.803Z,56.08
2019-03-08T05:09:48.749Z,56.28
2019-03-08T05:10:48.746Z,56.18
2019-03-08T05:11:48.722Z,55.98
2019-03-08T05:12:48.762Z,55.98
2019-03-08T05:13:48.704Z,56.28
2019-03-08T05:14:48.706Z,56.59
2019-03-08T05:15:48.682Z,55.98
2019-03-08T05:16:48.668Z,55.98
2019-03-08T05:17:48.660Z,56.18
2019-03-08T05:18:48.691Z,56.79
2019-03-08T05:19:48.642Z,56.18
2019-03-08T05:20:48.640Z,56.90
2019-03-08T05:21:48.623Z,56.79
2019-03-08T05:22:48.601Z,56.18
2019-03-08T05:23:48.598Z,56.79
2019-03-08T05:24:48.628Z,56.49
2019-03-08T05:25:48.573Z,56.49
2019-03-08T05:26:48.562Z,56.79
2019-03-08T05:27:48.544Z,56.70
2019-03-08T05:28:48.536Z,56.08
2019-03-08T05:29:48.529Z,56.79
2019-03-08T05:30:48.552Z,56.59
2019-03-08T05:31:48.506Z,56.59
2019-03-08T05:32:48.519Z,56.28
2019-03-08T05:33:48.479Z,55.95
2019-03-08T05:34:48.510Z,56.67
2019-03-08T05:35:48.480Z,57.00
2019-03-08T05:36:48.449Z,56.70
2019-03-08T05:37:48.434Z,56.18
2019-03-08T05:38:48.421Z,56.18
2019-03-08T05:39:48.414Z,55.98
2019-03-08T05:40:48.457Z,56.49
2019-03-08T05:41:48.418Z,56.79
2019-03-08T05:42:48.382Z,56.18
2019-03-08T05:43:48.371Z,56.26
2019-03-08T05:44:48.357Z,56.18
2019-03-08T05:45:48.349Z,56.18
2019-03-08T05:46:48.355Z,55.98
2019-03-08T05:47:48.341Z,56.28
2019-03-08T05:48:48.312Z,56.70
2019-03-08T05:49:48.303Z,56.90
2019-03-08T05:50:48.292Z,57.00
2019-03-08T05:51:48.358Z,55.98
2019-03-08T05:52:48.265Z,56.56
2019-03-08T05:53:48.254Z,56.26
2019-03-08T05:54:48.242Z,55.98
2019-03-08T05:55:48.245Z,56.56
2019-03-08T05:56:48.288Z,56.49
2019-03-08T05:57:48.221Z,56.56
2019-03-08T05:58:48.201Z,56.46
2019-03-08T05:59:48.191Z,56.87
2019-03-08T06:00:48.183Z,56.70
2019-03-08T06:01:48.204Z,56.77
2019-03-08T06:02:48.362Z,56.87
2019-03-08T06:03:48.143Z,56.70
2019-03-08T06:04:48.153Z,56.46
2019-03-08T06:05:48.122Z,56.87
2019-03-08T06:06:48.114Z,56.15
2019-03-08T06:07:48.129Z,56.36
2019-03-08T06:08:48.121Z,56.87
2019-03-08T06:09:48.076Z,56.56
2019-03-08T06:10:48.108Z,56.98
2019-03-08T06:11:48.061Z,56.98
2019-03-08T06:12:48.052Z,56.59
2019-03-08T06:13:48.074Z,56.67
2019-03-08T06:14:48.028Z,56.98
2019-03-08T06:15:48.014Z,56.87
2019-03-08T06:16:48.001Z,56.98
2019-03-08T06:17:48.014Z,56.56
2019-03-08T06:18:47.981Z,56.87
2019-03-08T06:19:47.996Z,56.67
2019-03-08T06:20:47.976Z,57.39
2019-03-08T06:21:47.948Z,57.18
2019-03-08T06:22:47.933Z,56.67
2019-03-08T06:23:47.927Z,56.67
2019-03-08T06:24:47.935Z,56.56
2019-03-08T06:25:47.933Z,57.59
2019-03-08T06:26:47.888Z,56.87
2019-03-08T06:27:47.896Z,56.56
2019-03-08T06:28:47.872Z,55.95
2019-03-08T06:29:47.892Z,56.67
2019-03-08T06:30:47.844Z,55.95
2019-03-08T06:31:47.837Z,56.46
2019-03-08T06:32:47.846Z,56.98
2019-03-08T06:33:47.811Z,56.46
2019-03-08T06:34:47.804Z,56.13
2019-03-08T06:35:47.853Z,56.64
2019-03-08T06:36:47.797Z,56.26
2019-03-08T06:37:47.785Z,56.26
2019-03-08T06:38:47.760Z,56.67
2019-03-08T06:39:47.743Z,56.64
2019-03-08T06:40:47.740Z,56.64
2019-03-08T06:41:47.749Z,56.23
2019-03-08T06:42:47.716Z,56.23
2019-03-08T06:43:47.703Z,56.43
2019-03-08T06:44:47.691Z,56.34
2019-03-08T06:45:47.730Z,56.23
2019-03-08T06:46:47.674Z,56.64
2019-03-08T06:47:47.678Z,56.64
2019-03-08T06:48:47.658Z,56.13
2019-03-08T06:49:47.644Z,56.13
2019-03-08T06:50:47.648Z,56.85
2019-03-08T06:51:47.612Z,57.36
2019-03-08T06:52:47.600Z,57.46
2019-03-08T06:53:47.597Z,57.67
2019-03-08T06:54:47.580Z,57.67
2019-03-08T06:55:47.590Z,57.67
2019-03-08T06:56:47.581Z,57.77
2019-03-08T06:57:47.550Z,57.87
2019-03-08T06:58:47.564Z,57.87
2019-03-08T06:59:47.528Z,58.49
2019-03-08T07:00:47.572Z,58.51
2019-03-08T07:01:47.511Z,58.49
2019-03-08T07:02:47.508Z,59.13
2019-03-08T07:03:47.488Z,59.13
2019-03-08T07:04:47.482Z,59.00
2019-03-08T07:05:47.517Z,59.23
2019-03-08T07:06:47.468Z,59.13
2019-03-08T07:07:47.474Z,59.13
2019-03-08T07:08:47.427Z,59.34
2019-03-08T07:09:47.416Z,58.83
2019-03-08T07:10:47.426Z,59.13
2019-03-08T07:11:47.443Z,58.92
2019-03-08T07:12:47.384Z,59.13
2019-03-08T07:13:47.459Z,58.92
2019-03-08T07:14:47.357Z,58.28
2019-03-08T07:15:47.346Z,57.67
2019-03-08T07:16:47.348Z,58.59
2019-03-08T07:17:47.357Z,58.49
2019-03-08T07:18:47.316Z,57.49
2019-03-08T07:19:47.320Z,57.79
2019-03-08T07:20:47.295Z,58.59
2019-03-08T07:21:47.279Z,58.49
2019-03-08T07:22:47.306Z,57.56
2019-03-08T07:23:47.262Z,58.49
2019-03-08T07:24:47.400Z,57.87
2019-03-08T07:25:51.426Z,57.56
2019-03-08T07:26:48.238Z,57.87
2019-03-08T07:27:47.218Z,57.36
2019-03-08T07:28:47.232Z,57.67
2019-03-08T07:29:47.202Z,57.67
2019-03-08T07:30:47.218Z,57.98
2019-03-08T07:31:47.170Z,57.87
2019-03-08T07:32:47.169Z,57.84
2019-03-08T07:33:53.221Z,57.46
2019-03-08T07:34:48.143Z,58.59
2019-03-08T07:35:47.143Z,58.28
2019-03-08T07:36:47.123Z,58.49
2019-03-08T07:37:47.114Z,58.39
2019-03-08T07:38:47.097Z,58.49
2019-03-08T07:39:47.116Z,59.11
2019-03-08T07:40:47.101Z,59.20
2019-03-08T07:41:47.058Z,59.11
2019-03-08T07:42:47.071Z,59.11
2019-03-08T07:43:47.044Z,59.08
2019-03-08T07:44:47.038Z,58.90
2019-03-08T07:45:47.073Z,58.97
2019-03-08T07:46:47.023Z,59.00
2019-03-08T07:47:47.000Z,59.11
2019-03-08T07:48:46.981Z,58.69
2019-03-08T07:49:46.975Z,58.80
2019-03-08T07:50:47.040Z,59.00
2019-03-08T07:51:46.976Z,59.00
2019-03-08T07:52:46.944Z,58.80
2019-03-08T07:53:46.928Z,59.11
2019-03-08T07:54:52.929Z,59.31
2019-03-08T07:55:47.909Z,59.00
2019-03-08T07:56:46.931Z,59.20
2019-03-08T07:57:46.906Z,58.80
2019-03-08T07:58:46.885Z,59.20
2019-03-08T07:59:53.440Z,59.31
2019-03-08T08:00:47.849Z,59.00
2019-03-08T08:01:46.841Z,59.31
2019-03-08T08:02:46.853Z,58.67
2019-03-08T08:03:46.832Z,58.90
2019-03-08T08:04:46.805Z,59.00
2019-03-08T08:05:46.796Z,59.00
2019-03-08T08:06:46.797Z,59.00
2019-03-08T08:07:46.801Z,58.69
2019-03-08T08:08:51.605Z,58.90
2019-03-08T08:09:47.782Z,58.80
2019-03-08T08:10:46.748Z,58.67
2019-03-08T08:11:46.734Z,59.38
2019-03-08T08:12:46.739Z,58.80
2019-03-08T08:13:46.747Z,59.31
2019-03-08T08:14:46.707Z,59.18
2019-03-08T08:15:46.698Z,58.97
2019-03-08T08:16:46.689Z,58.87
2019-03-08T08:17:46.701Z,58.97
2019-03-08T08:18:46.646Z,59.08
2019-03-08T08:19:46.640Z,58.77
2019-03-08T08:20:46.636Z,58.67
2019-03-08T08:21:46.637Z,58.46
2019-03-08T08:22:46.634Z,58.77
2019-03-08T08:23:46.621Z,58.67
2019-03-08T08:24:46.582Z,58.87
2019-03-08T08:25:46.574Z,58.87
2019-03-08T08:26:46.557Z,59.38
2019-03-08T08:27:46.557Z,59.59
2019-03-08T08:28:49.888Z,58.97
2019-03-08T08:29:46.596Z,59.28
2019-03-08T08:30:46.515Z,59.48
2019-03-08T08:31:46.520Z,59.59
2019-03-08T08:32:46.493Z,59.59
2019-03-08T08:33:46.488Z,59.28
2019-03-08T08:34:46.478Z,59.18
2019-03-08T08:35:46.478Z,58.97
2019-03-08T08:36:46.449Z,58.87
2019-03-08T08:37:46.444Z,59.18
2019-03-08T08:38:46.427Z,59.18
2019-03-08T08:39:46.408Z,59.59
2019-03-08T08:40:46.471Z,59.69
2019-03-08T08:41:46.490Z,59.89
2019-03-08T08:42:46.384Z,59.48
2019-03-08T08:43:46.378Z,60.00
2019-03-08T08:44:46.364Z,59.80
2019-03-08T08:45:46.346Z,60.21
2019-03-08T08:46:46.356Z,60.10
2019-03-08T08:47:46.402Z,60.21
2019-03-08T08:48:46.312Z,60.31
2019-03-08T08:49:54.307Z,60.10
2019-03-08T08:50:47.284Z,60.31
2019-03-08T08:51:46.316Z,60.51
2019-03-08T08:52:46.267Z,60.41
2019-03-08T08:53:46.252Z,60.10
2019-03-08T08:54:46.255Z,60.10
2019-03-08T08:55:46.241Z,60.10
2019-03-08T08:56:46.263Z,60.21
2019-03-08T08:57:46.208Z,60.10
2019-03-08T08:58:46.206Z,60.10
2019-03-08T08:59:46.208Z,60.21
2019-03-08T09:00:46.180Z,60.21
2019-03-08T09:01:46.170Z,60.00
2019-03-08T09:02:46.818Z,60.13
2019-03-08T09:03:46.145Z,60.10
2019-03-08T09:04:46.136Z,60.21
2019-03-08T09:05:46.119Z,60.13
2019-03-08T09:06:46.117Z,60.23
2019-03-08T09:07:46.151Z,60.23
2019-03-08T09:08:47.414Z,60.23
2019-03-08T09:09:46.076Z,60.00
2019-03-08T09:10:46.060Z,60.10
2019-03-08T09:11:52.137Z,60.10
2019-03-08T09:12:47.073Z,60.21
2019-03-08T09:13:46.055Z,60.13
2019-03-08T09:14:47.101Z,60.95
2019-03-08T09:15:46.007Z,60.51
2019-03-08T09:16:46.002Z,60.72
2019-03-08T09:17:46.048Z,60.51
2019-03-08T09:18:46.010Z,60.92
2019-03-08T09:19:46.004Z,60.31
2019-03-08T09:20:45.960Z,60.92
2019-03-08T09:21:45.945Z,60.82
2019-03-08T09:22:45.945Z,60.82
2019-03-08T09:23:45.918Z,61.64
2019-03-08T09:24:45.935Z,61.02
2019-03-08T09:25:45.919Z,61.57
2019-03-08T09:26:45.889Z,61.46
2019-03-08T09:27:45.911Z,61.36
2019-03-08T09:28:45.862Z,61.36
2019-03-08T09:29:45.866Z,61.87
2019-03-08T09:30:46.330Z,61.67
2019-03-08T09:31:45.844Z,61.85
2019-03-08T09:32:45.823Z,61.87
2019-03-08T09:33:45.813Z,62.08
2019-03-08T09:34:45.803Z,62.59
2019-03-08T09:35:45.784Z,62.80
2019-03-08T09:36:45.822Z,63.42
2019-03-08T09:37:45.796Z,63.72
2019-03-08T09:38:45.773Z,63.42
2019-03-08T09:39:45.736Z,64.44
2019-03-08T09:40:45.733Z,64.64
2019-03-08T09:41:45.721Z,65.09
2019-03-08T09:42:45.794Z,65.09
2019-03-08T09:43:45.696Z,65.80
2019-03-08T09:44:45.684Z,66.83
2019-03-08T09:45:45.685Z,68.78
2019-03-08T09:46:45.659Z,69.40
2019-03-08T09:47:45.656Z,69.53
2019-03-08T09:48:48.930Z,69.43
2019-03-08T09:49:45.645Z,69.84
2019-03-08T09:50:45.620Z,69.23
2019-03-08T09:51:45.613Z,69.64
2019-03-08T09:52:45.597Z,69.02
2019-03-08T09:53:45.619Z,68.10
2019-03-08T09:54:45.574Z,68.37
2019-03-08T09:55:45.566Z,68.19
2019-03-08T09:56:45.618Z,68.27
2019-03-08T09:57:45.537Z,68.40
2019-03-08T09:58:45.530Z,68.81
2019-03-08T09:59:45.522Z,69.74
2019-03-08T10:00:45.508Z,69.98
2019-03-08T10:01:45.518Z,70.49
2019-03-08T10:02:45.527Z,70.49
2019-03-08T10:03:46.490Z,72.44
2019-03-08T10:04:45.459Z,73.47
2019-03-08T10:05:45.473Z,73.68
2019-03-08T10:06:45.445Z,73.91
2019-03-08T10:07:45.499Z,75.56
2019-03-08T10:08:45.434Z,76.07
2019-03-08T10:09:45.404Z,77.51
2019-03-08T10:10:45.408Z,77.86
2019-03-08T10:11:45.384Z,77.55
2019-03-08T10:12:45.380Z,76.56
2019-03-08T10:13:45.384Z,78.10
2019-03-08T10:14:45.368Z,78.51
2019-03-08T10:15:45.350Z,78.51
2019-03-08T10:16:45.341Z,78.51
2019-03-08T10:17:45.325Z,77.89
2019-03-08T10:18:45.355Z,78.10
2019-03-08T10:19:45.297Z,77.24
2019-03-08T10:20:45.294Z,75.84
2019-03-08T10:21:45.272Z,74.77
2019-03-08T10:22:45.280Z,74.53
2019-03-08T10:23:45.329Z,73.61
2019-03-08T10:24:45.257Z,73.50
2019-03-08T10:25:45.224Z,73.50
2019-03-08T10:26:45.228Z,73.71
2019-03-08T10:27:45.215Z,73.61
2019-03-08T10:28:45.192Z,71.96
2019-03-08T10:29:45.214Z,71.93
2019-03-08T10:30:45.174Z,72.06
2019-03-08T10:31:45.176Z,70.79
2019-03-08T10:32:45.142Z,71.75
2019-03-08T10:33:46.734Z,71.21
2019-03-08T10:34:45.151Z,69.70
2019-03-08T10:35:45.113Z,69.77
2019-03-08T10:36:45.104Z,69.98
2019-03-08T10:37:45.095Z,70.04
2019-03-08T10:38:46.305Z,70.15
2019-03-08T10:39:45.070Z,69.53
2019-03-08T10:40:45.066Z,70.08
2019-03-08T10:41:45.054Z,70.04
2019-03-08T10:42:45.030Z,70.15
2019-03-08T10:43:45.040Z,70.25
2019-03-08T10:44:45.043Z,69.74
2019-03-08T10:45:45.011Z,69.70
2019-03-08T10:46:45.012Z,69.50
2019-03-08T10:47:44.992Z,69.50
2019-03-08T10:48:44.968Z,68.65
2019-03-08T10:49:44.973Z,68.78
2019-03-08T10:50:44.943Z,69.40
2019-03-08T10:51:44.935Z,69.40
2019-03-08T10:52:44.920Z,69.26
2019-03-08T10:53:44.920Z,69.37
2019-03-08T10:54:44.941Z,69.02
2019-03-08T10:55:44.905Z,67.90
2019-03-08T10:56:44.907Z,68.21
2019-03-08T10:57:44.867Z,68.54
2019-03-08T10:58:44.871Z,68.62
2019-03-08T10:59:44.881Z,68.30
2019-03-08T11:00:44.831Z,67.90
2019-03-08T11:01:44.828Z,68.10
2019-03-08T11:02:44.818Z,67.69
2019-03-08T11:03:44.844Z,67.38
2019-03-08T11:04:44.829Z,67.79
2019-03-08T11:05:44.775Z,68.21
2019-03-08T11:06:44.768Z,68.62
2019-03-08T11:07:44.750Z,69.29
2019-03-08T11:08:44.737Z,71.04
2019-03-08T11:09:44.739Z,73.30
2019-03-08T11:10:44.744Z,75.70
2019-03-08T11:11:44.708Z,76.73
2019-03-08T11:12:44.706Z,79.23
2019-03-08T11:13:44.686Z,79.58
2019-03-08T11:14:44.708Z,81.05
2019-03-08T11:15:46.772Z,81.26
2019-03-08T11:16:44.653Z,80.02
2019-03-08T11:17:50.829Z,79.72
2019-03-08T11:18:45.663Z,80.06
2019-03-08T11:19:44.624Z,78.72
2019-03-08T11:20:46.384Z,79.20
2019-03-08T11:21:44.629Z,78.41
2019-03-08T11:22:44.581Z,79.24
2019-03-08T11:23:44.572Z,78.93
2019-03-08T11:24:44.594Z,80.27
2019-03-08T11:25:44.553Z,80.79
2019-03-08T11:26:44.557Z,82.12
2019-03-08T11:27:44.548Z,80.16
2019-03-08T11:28:44.512Z,80.16
2019-03-08T11:29:44.560Z,81.20
2019-03-08T11:30:53.592Z,81.61
2019-03-08T11:31:45.480Z,81.34
2019-03-08T11:32:46.328Z,80.89
2019-03-08T11:33:44.457Z,81.20
2019-03-08T11:34:51.902Z,81.13
2019-03-08T11:35:45.487Z,81.20
2019-03-08T11:36:44.465Z,80.47
2019-03-08T11:37:44.459Z,81.30
2019-03-08T11:38:44.398Z,81.40
2019-03-08T11:39:44.386Z,80.27
2019-03-08T11:40:44.380Z,79.86
2019-03-08T11:41:44.372Z,80.27
2019-03-08T11:42:44.417Z,81.30
2019-03-08T11:43:44.350Z,79.96
2019-03-08T11:44:44.335Z,80.47
2019-03-08T11:45:44.326Z,80.16
2019-03-08T11:46:44.317Z,80.27
2019-03-08T11:47:44.303Z,80.47
2019-03-08T11:48:44.396Z,80.06
2019-03-08T11:49:44.291Z,80.37
2019-03-08T11:50:44.261Z,79.72
2019-03-08T11:51:44.248Z,79.93
2019-03-08T11:52:44.236Z,78.38
2019-03-08T11:53:44.277Z,77.93
2019-03-08T11:54:44.220Z,78.28
2019-03-08T11:55:44.203Z,78.17
2019-03-08T11:56:44.197Z,77.42
2019-03-08T11:57:44.182Z,76.70
2019-03-08T11:58:44.178Z,76.90
2019-03-08T11:59:44.188Z,78.14
2019-03-08T12:00:44.153Z,78.65
2019-03-08T12:01:44.137Z,77.42
2019-03-08T12:02:44.130Z,77.83
2019-03-08T12:03:44.115Z,77.31
2019-03-08T12:04:44.163Z,76.18
2019-03-08T12:05:44.150Z,75.87
2019-03-08T12:06:44.092Z,75.77
2019-03-08T12:07:44.090Z,75.73
2019-03-08T12:08:44.059Z,75.84
2019-03-08T12:09:44.053Z,75.22
2019-03-08T12:10:44.066Z,74.19
2019-03-08T12:11:44.030Z,73.74
2019-03-08T12:12:44.019Z,73.33
2019-03-08T12:13:44.033Z,73.64
2019-03-08T12:14:44.002Z,72.72
2019-03-08T12:15:43.995Z,73.02
2019-03-08T12:16:44.001Z,73.50
2019-03-08T12:17:43.958Z,72.27
2019-03-08T12:18:43.975Z,72.55
2019-03-08T12:19:43.945Z,72.65
2019-03-08T12:20:43.931Z,72.13
2019-03-08T12:21:43.933Z,72.41
2019-03-08T12:22:43.944Z,73.23
2019-03-08T12:23:43.950Z,71.76
2019-03-08T12:24:43.887Z,71.45
2019-03-08T12:25:43.888Z,72.38
2019-03-08T12:26:43.876Z,71.59
2019-03-08T12:27:43.878Z,71.76
2019-03-08T12:28:43.843Z,71.86
2019-03-08T12:29:43.862Z,71.66
2019-03-08T12:30:43.819Z,72.10
2019-03-08T12:31:43.811Z,72.17
2019-03-08T12:32:43.809Z,72.10
2019-03-08T12:33:43.808Z,72.41
2019-03-08T12:34:43.798Z,72.58
2019-03-08T12:35:43.769Z,72.99
2019-03-08T12:36:43.769Z,73.61
2019-03-08T12:37:43.736Z,72.14
2019-03-08T12:38:43.766Z,71.93
2019-03-08T12:39:43.717Z,70.80
2019-03-08T12:40:43.708Z,71.35
2019-03-08T12:41:43.727Z,72.06
2019-03-08T12:42:43.691Z,71.35
2019-03-08T12:43:45.101Z,71.52
2019-03-08T12:44:43.717Z,70.90
2019-03-08T12:45:43.653Z,71.21
2019-03-08T12:46:43.655Z,70.60
2019-03-08T12:47:43.631Z,69.37
2019-03-08T12:48:43.629Z,67.41
2019-03-08T12:49:43.641Z,67.52
2019-03-08T12:50:43.629Z,67.62
2019-03-08T12:51:43.583Z,67.35
2019-03-08T12:52:43.576Z,68.68